Petersham, Massachusetts
Current Conditions -  °F | °C
As of 10:52 PM on Wednesday 28 Jan 2015 (Local Time) from KORE Reporting Station
Clear Clear  
Wind Chill:   Ceiling: Unl
Heat Index: 12°   Visibility: 10mi
Dew Point: -5°   Wind: 8mph
Humidity: 46%   Direction: 310°NW
Pressure: 30.22"   Gusts: NA
Location:  42.49°N, 72.19°W
Report Text: KORE 290352Z AUTO 31007KT 10SM CLR M11/M21 A3022 RMK AO2 SLP246 T11111206
Loading
Personal Weather Stations






























Interactive Weather Map New forecast layout! Learn more

10-Day Weather Forecast

Advertisements
Track Severe Weather on mobile